createdAt,value
2023-03-31T00:02:13.847Z,8.43
2023-03-31T00:05:18.397Z,7.60
2023-03-31T00:08:21.471Z,8.75
2023-03-31T00:11:24.210Z,10.00
2023-03-31T00:14:26.669Z,12.40
2023-03-31T00:17:33.282Z,14.00
2023-03-31T00:20:38.280Z,10.27
2023-03-31T00:23:41.792Z,13.85
2023-03-31T00:26:45.036Z,14.23
2023-03-31T00:29:50.715Z,10.07
2023-03-31T00:32:53.358Z,13.00
2023-03-31T00:35:56.560Z,12.60
2023-03-31T00:39:08.944Z,13.30
2023-03-31T00:42:14.810Z,14.43
2023-03-31T00:45:17.185Z,13.45
2023-03-31T00:48:20.778Z,14.60
2023-03-31T00:51:25.941Z,17.07
2023-03-31T00:54:29.716Z,14.00
2023-03-31T00:57:39.315Z,15.30
2023-03-31T01:00:42.917Z,15.15
2023-03-31T01:03:46.931Z,13.45
2023-03-31T01:07:01.034Z,12.63
2023-03-31T01:10:05.232Z,16.50
2023-03-31T01:13:13.325Z,14.73
2023-03-31T01:16:16.849Z,15.38
2023-03-31T01:19:36.582Z,17.65
2023-03-31T01:23:16.841Z,16.40
2023-03-31T01:26:57.871Z,18.30
2023-03-31T01:30:33.024Z,16.87
2023-03-31T01:33:38.339Z,20.58
2023-03-31T01:37:04.073Z,19.92
2023-03-31T01:40:24.280Z,25.03
2023-03-31T01:43:39.588Z,22.98
2023-03-31T01:46:51.951Z,24.95
2023-03-31T01:50:06.160Z,25.65
2023-03-31T01:53:24.142Z,25.37
2023-03-31T01:56:34.253Z,22.03
2023-03-31T01:59:50.123Z,25.80
2023-03-31T02:03:10.893Z,29.80
2023-03-31T02:06:24.612Z,29.55
2023-03-31T02:09:32.607Z,25.48
2023-03-31T02:12:38.592Z,23.60
2023-03-31T02:15:44.522Z,25.80
2023-03-31T02:18:50.125Z,24.12
2023-03-31T02:21:54.959Z,24.42
2023-03-31T02:25:01.430Z,32.22
2023-03-31T02:28:12.190Z,27.83
2023-03-31T02:31:39.528Z,32.92
2023-03-31T02:34:42.984Z,26.48
2023-03-31T02:37:46.566Z,30.30
2023-03-31T02:40:49.441Z,25.45
2023-03-31T02:43:52.137Z,34.57
2023-03-31T02:46:57.147Z,27.60
2023-03-31T02:50:01.801Z,26.65
2023-03-31T02:53:19.717Z,25.83
2023-03-31T02:56:40.979Z,28.08
2023-03-31T03:00:13.624Z,31.07
2023-03-31T03:03:35.028Z,29.40
2023-03-31T03:07:05.732Z,26.27
2023-03-31T03:10:15.960Z,28.62
2023-03-31T03:14:06.196Z,29.35
2023-03-31T03:17:17.039Z,28.30
2023-03-31T03:20:22.325Z,26.42
2023-03-31T03:23:24.759Z,26.55
2023-03-31T03:26:30.748Z,26.83
2023-03-31T03:29:33.024Z,27.45
2023-03-31T03:32:36.054Z,27.23
2023-03-31T03:35:38.407Z,25.08
2023-03-31T03:38:41.200Z,24.48
2023-03-31T03:41:43.704Z,25.25
2023-03-31T03:44:46.492Z,26.77
2023-03-31T03:47:48.915Z,24.03
2023-03-31T03:50:53.302Z,23.27
2023-03-31T03:53:55.726Z,23.48
2023-03-31T03:56:58.535Z,23.98
2023-03-31T04:00:01.044Z,28.10
2023-03-31T04:03:03.634Z,26.97
2023-03-31T04:06:06.861Z,31.27
2023-03-31T04:09:09.356Z,28.30
2023-03-31T04:12:12.007Z,27.00
2023-03-31T04:15:14.458Z,26.33
2023-03-31T04:18:23.463Z,27.47
2023-03-31T04:21:25.884Z,29.08
2023-03-31T04:24:33.318Z,29.17
2023-03-31T04:27:36.266Z,26.80
2023-03-31T04:30:39.872Z,32.55
2023-03-31T04:33:46.285Z,33.47
2023-03-31T04:36:49.068Z,29.63
2023-03-31T04:39:54.676Z,28.85
2023-03-31T04:42:57.468Z,30.95
2023-03-31T04:45:59.903Z,30.37
2023-03-31T04:49:03.024Z,40.43
2023-03-31T04:52:05.671Z,32.58
2023-03-31T04:55:08.844Z,38.70
2023-03-31T04:58:11.355Z,38.83
2023-03-31T05:01:18.428Z,40.92
2023-03-31T05:04:21.253Z,38.70
2023-03-31T05:07:24.145Z,40.80
2023-03-31T05:10:26.515Z,37.95
2023-03-31T05:13:29.188Z,43.45
2023-03-31T05:16:31.573Z,42.45
2023-03-31T05:19:34.507Z,42.40
2023-03-31T05:22:38.194Z,46.00
2023-03-31T05:25:42.510Z,46.15
2023-03-31T05:28:45.096Z,39.00
2023-03-31T05:31:48.425Z,31.62
2023-03-31T05:34:52.755Z,37.33
2023-03-31T05:37:55.730Z,35.97
2023-03-31T05:40:58.468Z,33.15
2023-03-31T05:44:02.166Z,36.10
2023-03-31T05:47:04.575Z,31.10
2023-03-31T05:50:09.314Z,37.13
2023-03-31T05:53:11.869Z,32.83
2023-03-31T05:56:14.577Z,33.42
2023-03-31T05:59:17.039Z,37.88
2023-03-31T06:02:19.755Z,35.42
2023-03-31T06:05:26.544Z,39.73
2023-03-31T06:08:30.072Z,29.92
2023-03-31T06:11:32.745Z,31.42
2023-03-31T06:14:35.111Z,32.13
2023-03-31T06:17:38.885Z,29.75
2023-03-31T06:20:42.095Z,29.00
2023-03-31T06:23:46.218Z,32.13
2023-03-31T06:26:48.714Z,28.83
2023-03-31T06:29:51.484Z,26.45
2023-03-31T06:32:53.960Z,25.55
2023-03-31T06:35:57.545Z,27.57
2023-03-31T06:39:00.047Z,28.77
2023-03-31T06:42:02.849Z,33.65
2023-03-31T06:45:05.480Z,35.15
2023-03-31T06:48:08.522Z,28.60
2023-03-31T06:51:11.247Z,29.53
2023-03-31T06:54:14.028Z,24.48
2023-03-31T06:57:16.604Z,26.40
2023-03-31T07:00:22.381Z,27.77
2023-03-31T07:03:26.407Z,24.75
2023-03-31T07:06:29.168Z,26.17
2023-03-31T07:09:31.539Z,24.15
2023-03-31T07:12:34.395Z,22.77
2023-03-31T07:15:36.831Z,30.55
2023-03-31T07:18:42.164Z,28.05
2023-03-31T07:21:45.219Z,26.43
2023-03-31T07:24:47.894Z,26.45
2023-03-31T07:27:50.320Z,27.15
2023-03-31T07:30:53.002Z,24.00
2023-03-31T07:33:55.446Z,29.35
2023-03-31T07:36:58.428Z,27.00
2023-03-31T07:40:00.915Z,24.58
2023-03-31T07:43:04.270Z,25.42
2023-03-31T07:46:08.640Z,27.55
2023-03-31T07:49:16.093Z,25.48
2023-03-31T07:52:19.820Z,28.90
2023-03-31T07:55:23.904Z,24.75
2023-03-31T07:58:27.169Z,26.75
2023-03-31T08:01:30.002Z,22.13
2023-03-31T08:04:33.228Z,30.33
2023-03-31T08:07:37.280Z,27.10
2023-03-31T08:10:40.079Z,25.25
2023-03-31T08:13:42.579Z,23.42
2023-03-31T08:16:45.462Z,23.58
2023-03-31T08:19:48.027Z,22.98
2023-03-31T08:22:50.855Z,25.10
2023-03-31T08:25:53.272Z,23.33
2023-03-31T08:28:59.192Z,28.23
2023-03-31T08:32:01.649Z,23.98
2023-03-31T08:35:05.194Z,27.25
2023-03-31T08:38:07.693Z,21.93
2023-03-31T08:41:32.342Z,24.50
2023-03-31T08:45:01.510Z,22.98
2023-03-31T08:48:08.050Z,24.58
2023-03-31T08:51:21.318Z,21.30
2023-03-31T08:54:47.824Z,21.43
2023-03-31T08:58:24.813Z,22.25
2023-03-31T09:01:55.747Z,19.15
2023-03-31T09:05:25.614Z,17.12
2023-03-31T09:08:41.434Z,19.45
2023-03-31T09:11:53.974Z,18.17
2023-03-31T09:15:11.179Z,15.90
2023-03-31T09:18:35.485Z,18.27
2023-03-31T09:21:45.922Z,27.80
2023-03-31T09:24:56.244Z,17.48
2023-03-31T09:28:02.554Z,16.27
2023-03-31T09:31:24.081Z,17.33
2023-03-31T09:34:32.339Z,17.10
2023-03-31T09:37:34.772Z,17.45
2023-03-31T09:40:37.596Z,15.23
2023-03-31T09:43:41.482Z,16.67
2023-03-31T09:46:44.505Z,15.90
2023-03-31T09:49:54.164Z,16.15
2023-03-31T09:53:00.885Z,17.10
2023-03-31T09:56:08.736Z,16.67
2023-03-31T09:59:17.889Z,16.80
2023-03-31T10:02:37.935Z,15.48
2023-03-31T10:05:51.278Z,16.45
2023-03-31T10:09:03.140Z,16.15
2023-03-31T10:12:16.824Z,18.17
2023-03-31T10:15:22.627Z,14.63
2023-03-31T10:18:38.086Z,16.08
2023-03-31T10:21:40.873Z,14.38
2023-03-31T10:24:46.078Z,12.95
2023-03-31T10:27:53.232Z,14.23
2023-03-31T10:31:01.418Z,12.83
2023-03-31T10:34:12.821Z,12.88
2023-03-31T10:37:22.645Z,14.32
2023-03-31T10:40:28.347Z,15.60
2023-03-31T10:43:41.712Z,12.88
2023-03-31T10:46:50.150Z,14.90
2023-03-31T10:49:57.910Z,14.90
2023-03-31T10:53:07.484Z,13.55
2023-03-31T10:56:27.437Z,9.77
2023-03-31T10:59:48.814Z,11.43
2023-03-31T11:03:13.373Z,11.53
2023-03-31T11:06:48.758Z,17.02
2023-03-31T11:09:51.449Z,13.60
2023-03-31T11:13:21.518Z,11.68
2023-03-31T11:16:42.663Z,15.00
2023-03-31T11:20:03.577Z,13.90
2023-03-31T11:23:31.134Z,10.02
2023-03-31T11:26:53.744Z,10.48
2023-03-31T11:30:04.158Z,9.57
2023-03-31T11:33:06.560Z,10.77
2023-03-31T11:36:41.724Z,9.03
2023-03-31T11:40:03.030Z,10.27
2023-03-31T11:43:11.145Z,8.63
2023-03-31T11:46:22.818Z,11.25
2023-03-31T11:49:38.950Z,14.32
2023-03-31T11:52:52.202Z,10.00
2023-03-31T11:55:57.932Z,12.57
2023-03-31T11:59:02.088Z,12.32
2023-03-31T12:02:17.988Z,10.35
2023-03-31T12:05:22.951Z,9.82
2023-03-31T12:08:58.330Z,9.10
2023-03-31T12:12:12.031Z,12.70
2023-03-31T12:15:22.412Z,14.52
2023-03-31T12:18:26.899Z,12.98
2023-03-31T12:21:30.904Z,10.30
2023-03-31T12:24:34.559Z,12.13
2023-03-31T12:27:47.312Z,11.07
2023-03-31T12:30:52.585Z,10.50
2023-03-31T12:34:02.047Z,9.32
2023-03-31T12:37:42.613Z,9.20
2023-03-31T12:41:08.613Z,8.10
2023-03-31T12:44:44.018Z,9.65
2023-03-31T12:48:05.202Z,8.90
2023-03-31T12:51:23.214Z,10.38
2023-03-31T12:55:03.287Z,9.23
2023-03-31T12:58:32.311Z,12.83
2023-03-31T13:01:35.294Z,7.62
2023-03-31T13:04:38.511Z,7.70
2023-03-31T13:07:42.026Z,7.35
2023-03-31T13:11:11.622Z,10.07
2023-03-31T13:14:20.100Z,7.03
2023-03-31T13:17:30.815Z,5.72
2023-03-31T13:20:39.108Z,6.20
2023-03-31T13:23:46.688Z,9.27
2023-03-31T13:26:49.578Z,8.52
2023-03-31T13:29:52.220Z,6.93
2023-03-31T13:33:10.281Z,7.57
2023-03-31T13:36:34.385Z,6.55
2023-03-31T13:39:57.927Z,9.52
2023-03-31T13:43:15.801Z,7.25
2023-03-31T13:46:48.843Z,10.67
2023-03-31T13:50:19.220Z,9.88
2023-03-31T13:53:39.610Z,9.43
2023-03-31T13:57:09.693Z,6.20
2023-03-31T14:00:18.355Z,8.85
2023-03-31T14:03:37.768Z,5.47
2023-03-31T14:06:48.608Z,5.43
2023-03-31T14:09:54.098Z,5.85
2023-03-31T14:13:14.914Z,4.72
2023-03-31T14:16:18.722Z,5.47
2023-03-31T14:19:39.304Z,3.63
2023-03-31T14:23:20.806Z,3.37
2023-03-31T14:26:59.619Z,3.45
2023-03-31T14:30:17.857Z,4.18
2023-03-31T14:33:47.978Z,11.45
2023-03-31T14:36:58.626Z,3.97
2023-03-31T14:40:02.483Z,4.32
2023-03-31T14:43:05.463Z,5.45
2023-03-31T14:46:09.895Z,2.47
2023-03-31T14:49:21.615Z,4.15
2023-03-31T14:52:24.515Z,3.60
2023-03-31T14:55:44.180Z,3.40
2023-03-31T14:58:54.592Z,3.03
2023-03-31T15:01:59.596Z,3.35
2023-03-31T15:05:05.742Z,3.65
2023-03-31T15:08:14.228Z,2.27
2023-03-31T15:11:19.643Z,3.78
2023-03-31T15:14:23.149Z,4.62
2023-03-31T15:17:33.122Z,4.57
2023-03-31T15:20:38.362Z,6.20
2023-03-31T15:23:41.106Z,6.27
2023-03-31T15:27:13.777Z,4.90
2023-03-31T15:30:21.644Z,3.00
2023-03-31T15:37:07.941Z,6.28
2023-03-31T15:40:22.959Z,3.40
2023-03-31T15:43:31.770Z,4.47
2023-03-31T15:46:43.707Z,5.15
2023-03-31T15:49:54.925Z,5.03
2023-03-31T15:53:03.101Z,6.15
2023-03-31T15:56:05.963Z,5.37
2023-03-31T15:59:34.381Z,4.20
2023-03-31T16:02:46.474Z,4.03
2023-03-31T16:05:58.178Z,6.28
2023-03-31T16:09:24.266Z,3.72
2023-03-31T16:12:32.959Z,6.20
2023-03-31T16:15:42.454Z,4.12
2023-03-31T16:19:10.082Z,8.75
2023-03-31T16:22:23.403Z,4.40
2023-03-31T16:25:28.834Z,4.22
2023-03-31T16:28:34.317Z,7.80
2023-03-31T16:31:40.371Z,3.53
2023-03-31T16:35:11.923Z,6.80
2023-03-31T16:38:16.404Z,5.62
2023-03-31T16:41:19.520Z,6.62
2023-03-31T16:44:22.212Z,5.97
2023-03-31T16:47:35.249Z,6.35
2023-03-31T16:50:38.882Z,5.53
2023-03-31T16:53:41.935Z,6.78
2023-03-31T16:56:44.981Z,7.07
2023-03-31T16:59:47.709Z,5.67
2023-03-31T17:02:51.077Z,5.82
2023-03-31T17:09:20.468Z,8.05
2023-03-31T17:12:23.010Z,7.10
2023-03-31T17:15:25.696Z,8.20
2023-03-31T17:18:28.398Z,8.13
2023-03-31T17:21:31.125Z,11.25
2023-03-31T17:24:33.623Z,9.48
2023-03-31T17:27:36.677Z,8.02
2023-03-31T17:30:39.791Z,7.07
2023-03-31T17:33:43.815Z,6.50
2023-03-31T17:36:46.296Z,8.38
2023-03-31T17:39:48.922Z,11.68
2023-03-31T17:42:51.231Z,10.95
2023-03-31T17:46:01.828Z,5.23
2023-03-31T17:49:04.669Z,9.88
2023-03-31T17:52:07.462Z,15.10
2023-03-31T17:55:10.183Z,9.02
2023-03-31T17:58:13.794Z,7.10
2023-03-31T18:01:16.402Z,9.30
2023-03-31T18:04:19.240Z,17.58
2023-03-31T18:07:23.505Z,8.55
2023-03-31T18:10:26.551Z,9.05
2023-03-31T18:13:29.206Z,8.85
2023-03-31T18:16:32.695Z,9.10
2023-03-31T18:19:35.188Z,11.05
2023-03-31T18:22:37.942Z,11.65
2023-03-31T18:25:45.378Z,10.15
2023-03-31T18:28:48.334Z,9.27
2023-03-31T18:31:50.825Z,10.67
2023-03-31T18:34:53.565Z,10.32
2023-03-31T18:37:56.439Z,8.18
2023-03-31T18:40:59.992Z,8.85
2023-03-31T18:44:02.459Z,7.53
2023-03-31T18:47:05.499Z,9.70
2023-03-31T18:50:09.385Z,10.77
2023-03-31T18:53:13.302Z,7.93
2023-03-31T18:56:16.081Z,7.22
2023-03-31T18:59:18.786Z,11.45
2023-03-31T19:02:21.592Z,8.57
2023-03-31T19:05:24.473Z,8.02
2023-03-31T19:08:27.017Z,8.15
2023-03-31T19:11:29.909Z,7.57
2023-03-31T19:14:33.381Z,8.57
2023-03-31T19:17:36.299Z,9.17
2023-03-31T19:20:38.721Z,6.72
2023-03-31T19:23:41.474Z,7.05
2023-03-31T19:26:43.899Z,6.12
2023-03-31T19:29:46.675Z,6.25
2023-03-31T19:32:49.538Z,9.63
2023-03-31T19:35:52.422Z,7.90
2023-03-31T19:38:54.764Z,9.57
2023-03-31T19:41:57.406Z,5.40
2023-03-31T19:44:59.851Z,6.28
2023-03-31T19:48:02.788Z,7.07
2023-03-31T19:51:06.302Z,5.20
2023-03-31T19:54:11.501Z,6.57
2023-03-31T19:57:14.340Z,8.80
2023-03-31T20:00:19.682Z,5.10
2023-03-31T20:03:24.196Z,7.13
2023-03-31T20:06:29.840Z,5.82
2023-03-31T20:09:32.799Z,6.60
2023-03-31T20:12:35.131Z,6.07
2023-03-31T20:15:40.408Z,6.72
2023-03-31T20:18:49.609Z,6.13
2023-03-31T20:21:57.721Z,6.03
2023-03-31T20:25:01.139Z,9.38
2023-03-31T20:28:04.220Z,7.97
2023-03-31T20:31:07.982Z,6.93
2023-03-31T20:34:15.103Z,10.13
2023-03-31T20:37:18.343Z,8.10
2023-03-31T20:40:21.056Z,9.32
2023-03-31T20:43:24.499Z,8.75
2023-03-31T20:46:28.130Z,8.70
2023-03-31T20:49:30.617Z,10.17
2023-03-31T20:52:33.552Z,8.68
2023-03-31T20:55:36.566Z,7.00
2023-03-31T20:58:41.058Z,12.15
2023-03-31T21:01:47.888Z,7.87
2023-03-31T21:04:51.328Z,9.93
2023-03-31T21:07:53.854Z,7.22
2023-03-31T21:11:01.093Z,9.45
2023-03-31T21:14:03.592Z,7.68
2023-03-31T21:17:06.562Z,8.23
2023-03-31T21:20:10.083Z,10.50
2023-03-31T21:23:12.898Z,6.97
2023-03-31T21:26:16.330Z,4.18
2023-03-31T21:29:19.019Z,5.28
2023-03-31T21:32:21.457Z,6.47
2023-03-31T21:35:24.174Z,10.37
2023-03-31T21:38:28.022Z,9.98
2023-03-31T21:41:31.487Z,4.55
2023-03-31T21:44:33.943Z,5.25
2023-03-31T21:47:37.367Z,9.95
2023-03-31T21:50:40.782Z,8.07
2023-03-31T21:53:43.767Z,7.07
2023-03-31T21:56:46.275Z,5.40
2023-03-31T21:59:48.934Z,8.23
2023-03-31T22:02:53.808Z,8.35
2023-03-31T22:05:59.222Z,5.63
2023-03-31T22:09:01.736Z,7.07
2023-03-31T22:12:04.678Z,6.32
2023-03-31T22:15:07.781Z,4.15
2023-03-31T22:18:11.946Z,4.07
2023-03-31T22:21:25.590Z,5.90
2023-03-31T22:24:28.328Z,5.60
2023-03-31T22:27:30.738Z,6.37
2023-03-31T22:30:33.659Z,4.82
2023-03-31T22:33:36.336Z,7.35
2023-03-31T22:36:39.121Z,5.63
2023-03-31T22:39:41.831Z,9.82
2023-03-31T22:42:44.564Z,6.70
2023-03-31T22:45:47.192Z,4.75
2023-03-31T22:48:50.458Z,7.65
2023-03-31T22:51:56.014Z,4.47
2023-03-31T22:54:58.676Z,5.80
2023-03-31T22:58:01.242Z,4.68
2023-03-31T23:01:06.984Z,6.15
2023-03-31T23:04:09.840Z,2.95
2023-03-31T23:07:12.711Z,4.83
2023-03-31T23:10:15.131Z,4.53
2023-03-31T23:13:17.803Z,9.10
2023-03-31T23:16:22.780Z,9.65
2023-03-31T23:19:25.453Z,7.47
2023-03-31T23:22:27.939Z,4.13
2023-03-31T23:25:31.245Z,7.32
2023-03-31T23:28:35.746Z,4.68
2023-03-31T23:31:38.724Z,6.20
2023-03-31T23:34:41.948Z,7.95
2023-03-31T23:37:44.718Z,5.00
2023-03-31T23:40:48.576Z,8.52
2023-03-31T23:43:51.419Z,2.75
2023-03-31T23:46:53.869Z,3.62
2023-03-31T23:49:57.047Z,8.90
2023-03-31T23:53:00.326Z,8.33
2023-03-31T23:56:06.715Z,9.30
2023-03-31T23:59:09.128Z,11.40
